SCGE

María Dolores Airport

Airport
ICAO code
SCGE
IATA Code
LSQ
Summary
ICAO Region
CARSAM
ICAO Territory
Location

Los Angeles, Bio-Bio

Serving
Los Angeles
Elevation
374 ft
Coordinates
37° 24' 6" S , 72° 25' 32" W
KCC
Csb
Metar
Observation
SCGE 131300Z 01012KT 5000 -DZ BKN008 10/07 Q1019
Station
MARIA DOLORES
Date/Time
2022-08-13 13:00:00
Wind direction
10°
Wind speed
12 kts
Lowest cloud amount
broken clouds
Temperature
10°C
Dew point
7°C
Humidity
81%
QNH
1019 hPa
Weather condition
n/a

Airport to the northwest of Los Angeles, Bio Bio, Chile.

Climatology

Mediterranean climate (Köppen climate classification Csb)

Runways

Designator Length Width Surface Rops
18/36 1700 30 ASP No/No

Airport map

Aerial View

SKYbrary Partners:

Safety knowledge contributed by: